sensor_id;sensor_type;location;lat;lon;timestamp;temperature;humidity
1546;DHT22;766;51.502;9.752;2023-02-26T00:01:53;-1.20;99.90
1546;DHT22;766;51.502;9.752;2023-02-26T00:04:24;-1.20;99.90
1546;DHT22;766;51.502;9.752;2023-02-26T00:06:52;-1.20;99.90
1546;DHT22;766;51.502;9.752;2023-02-26T00:09:27;-1.00;99.90
1546;DHT22;766;51.502;9.752;2023-02-26T00:11:56;-1.10;99.90
1546;DHT22;766;51.502;9.752;2023-02-26T00:14:29;-1.20;99.90
1546;DHT22;766;51.502;9.752;2023-02-26T00:17:13;-1.20;99.90
1546;DHT22;766;51.502;9.752;2023-02-26T00:19:48;-1.20;99.90
1546;DHT22;766;51.502;9.752;2023-02-26T00:22:17;-1.40;99.90
1546;DHT22;766;51.502;9.752;2023-02-26T00:24:45;-1.40;99.90
1546;DHT22;766;51.502;9.752;2023-02-26T00:27:14;-1.40;99.90
1546;DHT22;766;51.502;9.752;2023-02-26T00:29:44;-1.60;99.90
1546;DHT22;766;51.502;9.752;2023-02-26T00:32:13;-1.70;99.90
1546;DHT22;766;51.502;9.752;2023-02-26T00:34:45;-1.50;99.90
1546;DHT22;766;51.502;9.752;2023-02-26T00:37:26;-1.30;99.90
1546;DHT22;766;51.502;9.752;2023-02-26T00:40:04;-1.50;99.90
1546;DHT22;766;51.502;9.752;2023-02-26T00:42:36;-1.60;99.90
1546;DHT22;766;51.502;9.752;2023-02-26T00:45:07;-1.70;99.90
1546;DHT22;766;51.502;9.752;2023-02-26T00:47:41;-1.70;99.90
1546;DHT22;766;51.502;9.752;2023-02-26T00:50:16;-1.80;99.90
1546;DHT22;766;51.502;9.752;2023-02-26T00:52:52;-1.70;99.90
1546;DHT22;766;51.502;9.752;2023-02-26T00:55:24;-1.70;99.90
1546;DHT22;766;51.502;9.752;2023-02-26T00:57:56;-1.60;99.90
1546;DHT22;766;51.502;9.752;2023-02-26T01:00:27;-1.60;99.90
1546;DHT22;766;51.502;9.752;2023-02-26T01:02:55;-1.50;99.90
1546;DHT22;766;51.502;9.752;2023-02-26T01:05:25;-1.60;99.90
1546;DHT22;766;51.502;9.752;2023-02-26T01:07:59;-1.40;99.90
1546;DHT22;766;51.502;9.752;2023-02-26T01:10:29;-1.50;99.90
1546;DHT22;766;51.502;9.752;2023-02-26T01:12:59;-1.50;99.90
1546;DHT22;766;51.502;9.752;2023-02-26T01:15:29;-1.50;99.90
1546;DHT22;766;51.502;9.752;2023-02-26T01:18:01;-1.30;99.90
1546;DHT22;766;51.502;9.752;2023-02-26T01:20:37;-1.30;99.90
1546;DHT22;766;51.502;9.752;2023-02-26T01:23:10;-1.20;99.90
1546;DHT22;766;51.502;9.752;2023-02-26T01:25:51;-1.20;99.90
1546;DHT22;766;51.502;9.752;2023-02-26T01:28:21;-1.20;99.90
1546;DHT22;766;51.502;9.752;2023-02-26T01:30:53;-1.10;99.90
1546;DHT22;766;51.502;9.752;2023-02-26T01:33:27;-1.20;99.90
1546;DHT22;766;51.502;9.752;2023-02-26T01:36:02;-1.20;99.90
1546;DHT22;766;51.502;9.752;2023-02-26T01:38:39;-1.20;99.90
1546;DHT22;766;51.502;9.752;2023-02-26T01:41:28;-1.30;99.90
1546;DHT22;766;51.502;9.752;2023-02-26T01:44:09;-1.30;99.90
1546;DHT22;766;51.502;9.752;2023-02-26T01:47:03;-1.20;99.90
1546;DHT22;766;51.502;9.752;2023-02-26T01:49:33;-1.20;99.90
1546;DHT22;766;51.502;9.752;2023-02-26T01:52:03;-1.20;99.90
1546;DHT22;766;51.502;9.752;2023-02-26T01:54:34;-1.30;99.90
1546;DHT22;766;51.502;9.752;2023-02-26T01:57:06;-1.30;99.90
1546;DHT22;766;51.502;9.752;2023-02-26T01:59:37;-1.20;99.90
1546;DHT22;766;51.502;9.752;2023-02-26T02:02:09;-1.20;99.90
1546;DHT22;766;51.502;9.752;2023-02-26T02:04:39;-1.30;99.90
1546;DHT22;766;51.502;9.752;2023-02-26T02:07:08;-1.30;99.90
1546;DHT22;766;51.502;9.752;2023-02-26T02:09:36;-1.30;99.90
1546;DHT22;766;51.502;9.752;2023-02-26T02:12:17;-1.30;99.90
1546;DHT22;766;51.502;9.752;2023-02-26T02:14:55;-1.30;99.90
1546;DHT22;766;51.502;9.752;2023-02-26T02:17:35;-1.20;99.90
1546;DHT22;766;51.502;9.752;2023-02-26T02:20:28;-1.20;99.90
1546;DHT22;766;51.502;9.752;2023-02-26T02:23:10;-1.20;99.90
1546;DHT22;766;51.502;9.752;2023-02-26T02:26:09;-1.30;99.90
1546;DHT22;766;51.502;9.752;2023-02-26T02:28:56;-1.30;99.90
1546;DHT22;766;51.502;9.752;2023-02-26T02:31:32;-1.20;99.90
1546;DHT22;766;51.502;9.752;2023-02-26T02:34:08;-1.20;99.90
1546;DHT22;766;51.502;9.752;2023-02-26T02:36:44;-1.30;99.90
1546;DHT22;766;51.502;9.752;2023-02-26T02:39:15;-1.30;99.90
1546;DHT22;766;51.502;9.752;2023-02-26T02:41:50;-1.30;99.90
1546;DHT22;766;51.502;9.752;2023-02-26T02:44:24;-1.30;99.90
1546;DHT22;766;51.502;9.752;2023-02-26T02:46:56;-1.20;99.90
1546;DHT22;766;51.502;9.752;2023-02-26T02:49:29;-1.30;99.90
1546;DHT22;766;51.502;9.752;2023-02-26T02:52:06;-1.20;99.90
1546;DHT22;766;51.502;9.752;2023-02-26T02:54:41;-1.20;99.90
1546;DHT22;766;51.502;9.752;2023-02-26T02:57:20;-1.10;99.90
1546;DHT22;766;51.502;9.752;2023-02-26T02:59:53;-1.10;99.90
1546;DHT22;766;51.502;9.752;2023-02-26T03:02:29;-1.10;99.90
1546;DHT22;766;51.502;9.752;2023-02-26T03:04:59;-1.10;99.90
1546;DHT22;766;51.502;9.752;2023-02-26T03:07:28;-1.10;99.90
1546;DHT22;766;51.502;9.752;2023-02-26T03:09:58;-1.00;99.90
1546;DHT22;766;51.502;9.752;2023-02-26T03:12:30;-1.10;99.90
1546;DHT22;766;51.502;9.752;2023-02-26T03:14:59;-1.10;99.90
1546;DHT22;766;51.502;9.752;2023-02-26T03:17:34;-1.10;99.90
1546;DHT22;766;51.502;9.752;2023-02-26T03:20:12;-1.10;99.90
1546;DHT22;766;51.502;9.752;2023-02-26T03:22:51;-1.10;99.90
1546;DHT22;766;51.502;9.752;2023-02-26T03:25:25;-1.20;99.90
1546;DHT22;766;51.502;9.752;2023-02-26T03:27:59;-1.20;99.90
1546;DHT22;766;51.502;9.752;2023-02-26T03:30:34;-1.30;99.90
1546;DHT22;766;51.502;9.752;2023-02-26T03:33:11;-1.30;99.90
1546;DHT22;766;51.502;9.752;2023-02-26T03:35:46;-1.30;99.90
1546;DHT22;766;51.502;9.752;2023-02-26T03:38:31;-1.30;99.90
1546;DHT22;766;51.502;9.752;2023-02-26T03:41:05;-1.30;99.90
1546;DHT22;766;51.502;9.752;2023-02-26T03:43:39;-1.40;99.90
1546;DHT22;766;51.502;9.752;2023-02-26T03:46:12;-1.50;99.90
1546;DHT22;766;51.502;9.752;2023-02-26T03:48:44;-1.50;99.90
1546;DHT22;766;51.502;9.752;2023-02-26T03:51:14;-1.40;99.90
1546;DHT22;766;51.502;9.752;2023-02-26T03:53:47;-1.50;99.90
1546;DHT22;766;51.502;9.752;2023-02-26T03:56:19;-1.50;99.90
1546;DHT22;766;51.502;9.752;2023-02-26T03:58:50;-1.50;99.90
1546;DHT22;766;51.502;9.752;2023-02-26T04:01:27;-1.40;99.90
1546;DHT22;766;51.502;9.752;2023-02-26T04:04:01;-1.30;99.90
1546;DHT22;766;51.502;9.752;2023-02-26T04:06:32;-1.40;99.90
1546;DHT22;766;51.502;9.752;2023-02-26T04:09:02;-1.30;99.90
1546;DHT22;766;51.502;9.752;2023-02-26T04:11:31;-1.30;99.90
1546;DHT22;766;51.502;9.752;2023-02-26T04:13:59;-1.40;99.90
1546;DHT22;766;51.502;9.752;2023-02-26T04:16:28;-1.40;99.90
1546;DHT22;766;51.502;9.752;2023-02-26T04:18:58;-1.40;99.90
1546;DHT22;766;51.502;9.752;2023-02-26T04:21:27;-1.50;99.90
1546;DHT22;766;51.502;9.752;2023-02-26T04:23:55;-1.50;99.90
1546;DHT22;766;51.502;9.752;2023-02-26T04:26:23;-1.60;99.90
1546;DHT22;766;51.502;9.752;2023-02-26T04:28:52;-1.70;99.90
1546;DHT22;766;51.502;9.752;2023-02-26T04:31:20;-1.80;99.90
1546;DHT22;766;51.502;9.752;2023-02-26T04:33:48;-1.90;99.90
1546;DHT22;766;51.502;9.752;2023-02-26T04:36:21;-1.90;99.90
1546;DHT22;766;51.502;9.752;2023-02-26T04:38:50;-1.90;99.90
1546;DHT22;766;51.502;9.752;2023-02-26T04:41:18;-1.70;99.90
1546;DHT22;766;51.502;9.752;2023-02-26T04:43:46;-1.70;99.90
1546;DHT22;766;51.502;9.752;2023-02-26T04:46:14;-1.60;99.90
1546;DHT22;766;51.502;9.752;2023-02-26T04:48:43;-1.50;99.90
1546;DHT22;766;51.502;9.752;2023-02-26T04:51:11;-1.50;99.90
1546;DHT22;766;51.502;9.752;2023-02-26T04:53:41;-1.50;99.90
1546;DHT22;766;51.502;9.752;2023-02-26T04:56:09;-1.50;99.90
1546;DHT22;766;51.502;9.752;2023-02-26T04:58:38;-1.60;99.90
1546;DHT22;766;51.502;9.752;2023-02-26T05:01:06;-1.50;99.90
1546;DHT22;766;51.502;9.752;2023-02-26T05:03:34;-1.60;99.90
1546;DHT22;766;51.502;9.752;2023-02-26T05:06:02;-1.50;99.90
1546;DHT22;766;51.502;9.752;2023-02-26T05:08:31;-1.50;99.90
1546;DHT22;766;51.502;9.752;2023-02-26T05:11:00;-1.50;99.90
1546;DHT22;766;51.502;9.752;2023-02-26T05:13:29;-1.50;99.90
1546;DHT22;766;51.502;9.752;2023-02-26T05:15:57;-1.50;99.90
1546;DHT22;766;51.502;9.752;2023-02-26T05:18:26;-1.30;99.90
1546;DHT22;766;51.502;9.752;2023-02-26T05:20:55;-1.30;99.90
1546;DHT22;766;51.502;9.752;2023-02-26T05:23:24;-1.30;99.90
1546;DHT22;766;51.502;9.752;2023-02-26T05:25:54;-1.30;99.90
1546;DHT22;766;51.502;9.752;2023-02-26T05:28:24;-1.40;99.90
1546;DHT22;766;51.502;9.752;2023-02-26T05:30:55;-1.30;99.90
1546;DHT22;766;51.502;9.752;2023-02-26T05:33:24;-1.30;99.90
1546;DHT22;766;51.502;9.752;2023-02-26T05:35:53;-1.30;99.90
1546;DHT22;766;51.502;9.752;2023-02-26T05:38:21;-1.50;99.90
1546;DHT22;766;51.502;9.752;2023-02-26T05:40:55;-1.40;99.90
1546;DHT22;766;51.502;9.752;2023-02-26T05:43:25;-1.40;99.90
1546;DHT22;766;51.502;9.752;2023-02-26T05:45:54;-1.40;99.90
1546;DHT22;766;51.502;9.752;2023-02-26T05:48:25;-1.40;99.90
1546;DHT22;766;51.502;9.752;2023-02-26T05:50:55;-1.30;99.90
1546;DHT22;766;51.502;9.752;2023-02-26T05:53:24;-1.40;99.90
1546;DHT22;766;51.502;9.752;2023-02-26T05:55:53;-1.40;99.90
1546;DHT22;766;51.502;9.752;2023-02-26T05:58:21;-1.40;99.90
1546;DHT22;766;51.502;9.752;2023-02-26T06:00:51;-1.50;99.90
1546;DHT22;766;51.502;9.752;2023-02-26T06:03:19;-1.50;99.90
1546;DHT22;766;51.502;9.752;2023-02-26T06:05:47;-1.50;99.90
1546;DHT22;766;51.502;9.752;2023-02-26T06:08:16;-1.40;99.90
1546;DHT22;766;51.502;9.752;2023-02-26T06:10:44;-1.40;99.90
1546;DHT22;766;51.502;9.752;2023-02-26T06:13:13;-1.40;99.90
1546;DHT22;766;51.502;9.752;2023-02-26T06:15:41;-1.50;99.90
1546;DHT22;766;51.502;9.752;2023-02-26T06:18:11;-1.50;99.90
1546;DHT22;766;51.502;9.752;2023-02-26T06:20:39;-1.50;99.90
1546;DHT22;766;51.502;9.752;2023-02-26T06:23:07;-1.50;99.90
1546;DHT22;766;51.502;9.752;2023-02-26T06:25:36;-1.40;99.90
1546;DHT22;766;51.502;9.752;2023-02-26T06:28:04;-1.30;99.90
1546;DHT22;766;51.502;9.752;2023-02-26T06:30:33;-1.40;99.90
1546;DHT22;766;51.502;9.752;2023-02-26T06:33:01;-1.40;99.90
1546;DHT22;766;51.502;9.752;2023-02-26T06:35:31;-1.40;99.90
1546;DHT22;766;51.502;9.752;2023-02-26T06:37:59;-1.30;99.90
1546;DHT22;766;51.502;9.752;2023-02-26T06:40:27;-1.30;99.90
1546;DHT22;766;51.502;9.752;2023-02-26T06:42:56;-1.20;99.90
1546;DHT22;766;51.502;9.752;2023-02-26T06:45:24;-1.20;99.90
1546;DHT22;766;51.502;9.752;2023-02-26T06:47:53;-1.20;99.90
1546;DHT22;766;51.502;9.752;2023-02-26T06:50:21;-1.20;99.90
1546;DHT22;766;51.502;9.752;2023-02-26T06:52:51;-1.20;99.90
1546;DHT22;766;51.502;9.752;2023-02-26T06:55:20;-1.20;99.90
1546;DHT22;766;51.502;9.752;2023-02-26T06:57:53;-1.10;99.90
1546;DHT22;766;51.502;9.752;2023-02-26T07:00:24;-1.30;99.90
1546;DHT22;766;51.502;9.752;2023-02-26T07:02:53;-1.20;99.90
1546;DHT22;766;51.502;9.752;2023-02-26T07:05:21;-1.10;99.90
1546;DHT22;766;51.502;9.752;2023-02-26T07:07:50;-1.10;99.90
1546;DHT22;766;51.502;9.752;2023-02-26T07:10:19;-1.10;99.90
1546;DHT22;766;51.502;9.752;2023-02-26T07:12:48;-1.10;99.90
1546;DHT22;766;51.502;9.752;2023-02-26T07:15:17;-1.00;99.90
1546;DHT22;766;51.502;9.752;2023-02-26T07:17:45;-1.00;99.90
1546;DHT22;766;51.502;9.752;2023-02-26T07:20:13;-1.00;99.90
1546;DHT22;766;51.502;9.752;2023-02-26T07:22:42;-1.00;99.90
1546;DHT22;766;51.502;9.752;2023-02-26T07:25:12;-1.00;99.90
1546;DHT22;766;51.502;9.752;2023-02-26T07:27:40;-1.00;99.90
1546;DHT22;766;51.502;9.752;2023-02-26T07:30:10;-0.90;99.90
1546;DHT22;766;51.502;9.752;2023-02-26T07:32:39;-0.80;99.90
1546;DHT22;766;51.502;9.752;2023-02-26T07:35:08;-0.90;99.90
1546;DHT22;766;51.502;9.752;2023-02-26T07:37:36;-0.80;99.90
1546;DHT22;766;51.502;9.752;2023-02-26T07:40:06;-0.70;99.90
1546;DHT22;766;51.502;9.752;2023-02-26T07:42:36;-0.70;99.90
1546;DHT22;766;51.502;9.752;2023-02-26T07:45:06;-0.60;99.90
1546;DHT22;766;51.502;9.752;2023-02-26T07:47:35;-0.50;99.90
1546;DHT22;766;51.502;9.752;2023-02-26T07:50:04;-0.70;99.90
1546;DHT22;766;51.502;9.752;2023-02-26T07:52:33;-0.50;99.90
1546;DHT22;766;51.502;9.752;2023-02-26T07:55:01;-0.60;99.90
1546;DHT22;766;51.502;9.752;2023-02-26T07:57:29;-0.60;99.90
1546;DHT22;766;51.502;9.752;2023-02-26T08:00:00;-0.60;99.90
1546;DHT22;766;51.502;9.752;2023-02-26T08:02:30;-0.60;99.90
1546;DHT22;766;51.502;9.752;2023-02-26T08:04:59;-0.70;99.90
1546;DHT22;766;51.502;9.752;2023-02-26T08:07:27;-0.80;99.90
1546;DHT22;766;51.502;9.752;2023-02-26T08:09:56;-0.70;99.90
1546;DHT22;766;51.502;9.752;2023-02-26T08:12:24;-0.80;99.90
1546;DHT22;766;51.502;9.752;2023-02-26T08:14:52;-0.70;99.90
1546;DHT22;766;51.502;9.752;2023-02-26T08:17:22;-0.50;99.90
1546;DHT22;766;51.502;9.752;2023-02-26T08:19:50;-0.50;99.90
1546;DHT22;766;51.502;9.752;2023-02-26T08:22:20;-0.60;99.90
1546;DHT22;766;51.502;9.752;2023-02-26T08:24:49;-0.60;99.90
1546;DHT22;766;51.502;9.752;2023-02-26T08:27:18;-0.40;99.90
1546;DHT22;766;51.502;9.752;2023-02-26T08:29:46;-0.20;99.90
1546;DHT22;766;51.502;9.752;2023-02-26T08:32:17;-0.20;99.90
1546;DHT22;766;51.502;9.752;2023-02-26T08:34:50;-0.10;99.90
1546;DHT22;766;51.502;9.752;2023-02-26T08:37:18;-0.10;99.90
1546;DHT22;766;51.502;9.752;2023-02-26T08:39:48;0.00;99.90
1546;DHT22;766;51.502;9.752;2023-02-26T08:42:17;0.00;99.90
1546;DHT22;766;51.502;9.752;2023-02-26T08:44:46;0.10;99.90
1546;DHT22;766;51.502;9.752;2023-02-26T08:47:14;0.20;99.90
1546;DHT22;766;51.502;9.752;2023-02-26T08:49:55;0.10;99.90
1546;DHT22;766;51.502;9.752;2023-02-26T08:52:25;0.20;99.90
1546;DHT22;766;51.502;9.752;2023-02-26T08:54:53;0.20;99.90
1546;DHT22;766;51.502;9.752;2023-02-26T08:57:21;0.40;99.90
1546;DHT22;766;51.502;9.752;2023-02-26T08:59:50;0.50;99.90
1546;DHT22;766;51.502;9.752;2023-02-26T09:02:18;0.50;99.90
1546;DHT22;766;51.502;9.752;2023-02-26T09:04:47;0.50;99.90
1546;DHT22;766;51.502;9.752;2023-02-26T09:07:16;0.50;99.90
1546;DHT22;766;51.502;9.752;2023-02-26T09:09:45;0.50;99.90
1546;DHT22;766;51.502;9.752;2023-02-26T09:12:14;0.40;99.90
1546;DHT22;766;51.502;9.752;2023-02-26T09:14:42;0.40;99.90
1546;DHT22;766;51.502;9.752;2023-02-26T09:17:11;0.60;99.90
1546;DHT22;766;51.502;9.752;2023-02-26T09:19:39;0.80;99.90
1546;DHT22;766;51.502;9.752;2023-02-26T09:22:08;0.80;99.90
1546;DHT22;766;51.502;9.752;2023-02-26T09:24:38;0.60;99.90
1546;DHT22;766;51.502;9.752;2023-02-26T09:27:06;0.50;99.90
1546;DHT22;766;51.502;9.752;2023-02-26T09:29:34;0.50;99.90
1546;DHT22;766;51.502;9.752;2023-02-26T09:32:05;0.50;99.90
1546;DHT22;766;51.502;9.752;2023-02-26T09:34:35;0.50;99.90
1546;DHT22;766;51.502;9.752;2023-02-26T09:37:04;0.40;99.90
1546;DHT22;766;51.502;9.752;2023-02-26T09:39:33;0.30;99.90
1546;DHT22;766;51.502;9.752;2023-02-26T09:42:10;0.20;99.90
1546;DHT22;766;51.502;9.752;2023-02-26T09:44:40;0.20;99.90
1546;DHT22;766;51.502;9.752;2023-02-26T09:47:15;0.30;99.90
1546;DHT22;766;51.502;9.752;2023-02-26T09:49:50;0.40;99.90
1546;DHT22;766;51.502;9.752;2023-02-26T09:52:23;0.40;99.90
1546;DHT22;766;51.502;9.752;2023-02-26T09:54:56;0.40;99.90
1546;DHT22;766;51.502;9.752;2023-02-26T09:57:30;0.50;99.90
1546;DHT22;766;51.502;9.752;2023-02-26T10:00:00;0.50;99.90
1546;DHT22;766;51.502;9.752;2023-02-26T10:02:37;0.60;99.90
1546;DHT22;766;51.502;9.752;2023-02-26T10:05:18;0.70;99.90
1546;DHT22;766;51.502;9.752;2023-02-26T10:07:54;0.70;99.90
1546;DHT22;766;51.502;9.752;2023-02-26T10:10:32;0.70;99.90
1546;DHT22;766;51.502;9.752;2023-02-26T10:13:04;0.60;99.90
1546;DHT22;766;51.502;9.752;2023-02-26T10:15:36;0.60;99.90
1546;DHT22;766;51.502;9.752;2023-02-26T10:18:10;0.70;99.90
1546;DHT22;766;51.502;9.752;2023-02-26T10:20:46;1.10;99.90
1546;DHT22;766;51.502;9.752;2023-02-26T10:23:22;1.20;99.90
1546;DHT22;766;51.502;9.752;2023-02-26T10:25:55;1.40;99.90
1546;DHT22;766;51.502;9.752;2023-02-26T10:28:43;1.60;99.90
1546;DHT22;766;51.502;9.752;2023-02-26T10:31:21;1.70;99.90
1546;DHT22;766;51.502;9.752;2023-02-26T10:34:03;1.50;99.90
1546;DHT22;766;51.502;9.752;2023-02-26T10:36:39;1.30;99.90
1546;DHT22;766;51.502;9.752;2023-02-26T10:39:20;1.40;99.90
1546;DHT22;766;51.502;9.752;2023-02-26T10:41:50;1.30;99.90
1546;DHT22;766;51.502;9.752;2023-02-26T10:44:26;1.30;99.90
1546;DHT22;766;51.502;9.752;2023-02-26T10:47:03;1.20;99.90
1546;DHT22;766;51.502;9.752;2023-02-26T10:49:52;1.30;99.90
1546;DHT22;766;51.502;9.752;2023-02-26T10:52:23;1.80;99.90
1546;DHT22;766;51.502;9.752;2023-02-26T10:55:04;2.40;99.90
1546;DHT22;766;51.502;9.752;2023-02-26T10:57:39;2.90;99.90
1546;DHT22;766;51.502;9.752;2023-02-26T11:00:16;3.20;99.90
1546;DHT22;766;51.502;9.752;2023-02-26T11:02:48;3.70;99.90
1546;DHT22;766;51.502;9.752;2023-02-26T11:05:19;4.20;99.90
1546;DHT22;766;51.502;9.752;2023-02-26T11:07:50;4.30;99.90
1546;DHT22;766;51.502;9.752;2023-02-26T11:10:24;4.10;99.90
1546;DHT22;766;51.502;9.752;2023-02-26T11:12:53;3.40;99.90
1546;DHT22;766;51.502;9.752;2023-02-26T11:15:25;3.30;99.90
1546;DHT22;766;51.502;9.752;2023-02-26T11:17:56;3.50;99.90
1546;DHT22;766;51.502;9.752;2023-02-26T11:20:30;3.70;99.90
1546;DHT22;766;51.502;9.752;2023-02-26T11:23:02;4.00;99.90
1546;DHT22;766;51.502;9.752;2023-02-26T11:25:32;4.20;99.90
1546;DHT22;766;51.502;9.752;2023-02-26T11:28:03;4.50;99.90
1546;DHT22;766;51.502;9.752;2023-02-26T11:30:35;4.40;99.90
1546;DHT22;766;51.502;9.752;2023-02-26T11:33:15;5.00;99.90
1546;DHT22;766;51.502;9.752;2023-02-26T11:35:45;5.30;99.90
1546;DHT22;766;51.502;9.752;2023-02-26T11:38:18;5.30;99.90
1546;DHT22;766;51.502;9.752;2023-02-26T11:40:50;4.90;99.90
1546;DHT22;766;51.502;9.752;2023-02-26T11:43:21;4.60;99.90
1546;DHT22;766;51.502;9.752;2023-02-26T11:45:57;4.10;99.90
1546;DHT22;766;51.502;9.752;2023-02-26T11:48:31;3.70;99.90
1546;DHT22;766;51.502;9.752;2023-02-26T11:51:04;4.10;99.90
1546;DHT22;766;51.502;9.752;2023-02-26T11:53:35;3.80;99.90
1546;DHT22;766;51.502;9.752;2023-02-26T11:56:11;3.70;99.90
1546;DHT22;766;51.502;9.752;2023-02-26T11:58:44;3.70;99.90
1546;DHT22;766;51.502;9.752;2023-02-26T12:01:16;4.20;99.90
1546;DHT22;766;51.502;9.752;2023-02-26T12:03:47;4.50;99.90
1546;DHT22;766;51.502;9.752;2023-02-26T12:06:18;4.60;99.90
1546;DHT22;766;51.502;9.752;2023-02-26T12:08:47;4.70;99.90
1546;DHT22;766;51.502;9.752;2023-02-26T12:11:36;4.30;99.90
1546;DHT22;766;51.502;9.752;2023-02-26T12:14:16;4.40;99.90
1546;DHT22;766;51.502;9.752;2023-02-26T12:16:56;4.80;99.90
1546;DHT22;766;51.502;9.752;2023-02-26T12:19:36;4.70;99.90
1546;DHT22;766;51.502;9.752;2023-02-26T12:22:34;4.50;99.90
1546;DHT22;766;51.502;9.752;2023-02-26T12:25:21;3.90;99.90
1546;DHT22;766;51.502;9.752;2023-02-26T12:28:22;3.70;99.90
1546;DHT22;766;51.502;9.752;2023-02-26T12:31:20;4.30;99.90
1546;DHT22;766;51.502;9.752;2023-02-26T12:34:04;4.40;99.90
1546;DHT22;766;51.502;9.752;2023-02-26T12:36:47;4.00;99.90
1546;DHT22;766;51.502;9.752;2023-02-26T12:39:31;3.70;99.90
1546;DHT22;766;51.502;9.752;2023-02-26T12:42:08;3.80;99.90
1546;DHT22;766;51.502;9.752;2023-02-26T12:45:03;4.00;99.90
1546;DHT22;766;51.502;9.752;2023-02-26T12:47:42;4.00;99.90
1546;DHT22;766;51.502;9.752;2023-02-26T12:50:24;4.70;99.90
1546;DHT22;766;51.502;9.752;2023-02-26T12:56:03;4.70;99.90
1546;DHT22;766;51.502;9.752;2023-02-26T12:58:48;4.60;99.90
1546;DHT22;766;51.502;9.752;2023-02-26T13:04:48;4.70;99.90
1546;DHT22;766;51.502;9.752;2023-02-26T13:07:45;4.90;99.90
1546;DHT22;766;51.502;9.752;2023-02-26T13:10:26;4.80;99.90
1546;DHT22;766;51.502;9.752;2023-02-26T13:13:06;5.00;99.90
1546;DHT22;766;51.502;9.752;2023-02-26T13:15:51;5.30;99.90
1546;DHT22;766;51.502;9.752;2023-02-26T13:18:31;4.80;99.90
1546;DHT22;766;51.502;9.752;2023-02-26T13:21:08;5.00;99.90
1546;DHT22;766;51.502;9.752;2023-02-26T13:23:45;5.70;99.90
1546;DHT22;766;51.502;9.752;2023-02-26T13:26:17;5.90;99.90
1546;DHT22;766;51.502;9.752;2023-02-26T13:28:49;5.50;99.90
1546;DHT22;766;51.502;9.752;2023-02-26T13:31:24;5.70;99.90
1546;DHT22;766;51.502;9.752;2023-02-26T13:33:58;6.20;99.90
1546;DHT22;766;51.502;9.752;2023-02-26T13:36:29;6.10;99.90
1546;DHT22;766;51.502;9.752;2023-02-26T13:39:17;5.90;99.90
1546;DHT22;766;51.502;9.752;2023-02-26T13:41:55;5.30;99.90
1546;DHT22;766;51.502;9.752;2023-02-26T13:44:33;4.80;99.90
1546;DHT22;766;51.502;9.752;2023-02-26T13:47:28;4.40;99.90
1546;DHT22;766;51.502;9.752;2023-02-26T13:50:16;4.40;99.90
1546;DHT22;766;51.502;9.752;2023-02-26T13:52:51;4.60;99.90
1546;DHT22;766;51.502;9.752;2023-02-26T13:55:42;5.20;99.90
1546;DHT22;766;51.502;9.752;2023-02-26T13:58:28;5.10;99.90
1546;DHT22;766;51.502;9.752;2023-02-26T14:01:03;5.40;99.90
1546;DHT22;766;51.502;9.752;2023-02-26T14:03:33;5.90;99.90
1546;DHT22;766;51.502;9.752;2023-02-26T14:06:24;6.70;99.90
1546;DHT22;766;51.502;9.752;2023-02-26T14:08:54;6.90;99.90
1546;DHT22;766;51.502;9.752;2023-02-26T14:11:35;7.00;99.90
1546;DHT22;766;51.502;9.752;2023-02-26T14:14:23;5.70;99.90
1546;DHT22;766;51.502;9.752;2023-02-26T14:20:23;4.20;99.90
1546;DHT22;766;51.502;9.752;2023-02-26T14:23:10;4.50;99.90
1546;DHT22;766;51.502;9.752;2023-02-26T14:25:41;5.00;99.90
1546;DHT22;766;51.502;9.752;2023-02-26T14:28:34;4.90;99.90
1546;DHT22;766;51.502;9.752;2023-02-26T14:31:12;4.40;99.90
1546;DHT22;766;51.502;9.752;2023-02-26T14:33:45;3.90;99.90
1546;DHT22;766;51.502;9.752;2023-02-26T14:36:19;3.80;99.90
1546;DHT22;766;51.502;9.752;2023-02-26T14:38:49;3.70;99.90
1546;DHT22;766;51.502;9.752;2023-02-26T14:41:27;3.70;99.90
1546;DHT22;766;51.502;9.752;2023-02-26T14:44:01;3.60;99.90
1546;DHT22;766;51.502;9.752;2023-02-26T14:46:34;3.70;99.90
1546;DHT22;766;51.502;9.752;2023-02-26T14:49:03;3.70;99.90
1546;DHT22;766;51.502;9.752;2023-02-26T14:51:42;3.60;99.90
1546;DHT22;766;51.502;9.752;2023-02-26T14:54:35;3.40;99.90
1546;DHT22;766;51.502;9.752;2023-02-26T14:57:10;3.40;99.90
1546;DHT22;766;51.502;9.752;2023-02-26T15:00:00;3.30;99.90
1546;DHT22;766;51.502;9.752;2023-02-26T15:02:46;3.20;99.90
1546;DHT22;766;51.502;9.752;2023-02-26T15:05:39;3.30;99.90
1546;DHT22;766;51.502;9.752;2023-02-26T15:08:26;3.40;99.90
1546;DHT22;766;51.502;9.752;2023-02-26T15:11:10;3.60;99.90
1546;DHT22;766;51.502;9.752;2023-02-26T15:14:01;3.60;99.90
1546;DHT22;766;51.502;9.752;2023-02-26T15:16:43;3.40;99.90
1546;DHT22;766;51.502;9.752;2023-02-26T15:19:36;3.30;99.90
1546;DHT22;766;51.502;9.752;2023-02-26T15:22:20;3.30;99.90
1546;DHT22;766;51.502;9.752;2023-02-26T15:24:53;3.10;99.90
1546;DHT22;766;51.502;9.752;2023-02-26T15:27:29;2.90;99.90
1546;DHT22;766;51.502;9.752;2023-02-26T15:29:59;2.70;99.90
1546;DHT22;766;51.502;9.752;2023-02-26T15:32:34;2.70;99.90
1546;DHT22;766;51.502;9.752;2023-02-26T15:35:13;2.70;99.90
1546;DHT22;766;51.502;9.752;2023-02-26T15:37:44;2.60;99.90
1546;DHT22;766;51.502;9.752;2023-02-26T15:40:15;2.40;99.90
1546;DHT22;766;51.502;9.752;2023-02-26T15:42:49;2.40;99.90
1546;DHT22;766;51.502;9.752;2023-02-26T15:45:24;2.50;99.90
1546;DHT22;766;51.502;9.752;2023-02-26T15:47:58;2.40;99.90
1546;DHT22;766;51.502;9.752;2023-02-26T15:50:30;2.30;99.90
1546;DHT22;766;51.502;9.752;2023-02-26T15:53:02;2.20;99.90
1546;DHT22;766;51.502;9.752;2023-02-26T15:55:34;2.20;99.90
1546;DHT22;766;51.502;9.752;2023-02-26T15:58:05;2.20;99.90
1546;DHT22;766;51.502;9.752;2023-02-26T16:00:35;2.10;99.90
1546;DHT22;766;51.502;9.752;2023-02-26T16:03:08;2.10;99.90
1546;DHT22;766;51.502;9.752;2023-02-26T16:05:37;2.00;99.90
1546;DHT22;766;51.502;9.752;2023-02-26T16:08:09;1.90;99.90
1546;DHT22;766;51.502;9.752;2023-02-26T16:10:44;1.90;99.90
1546;DHT22;766;51.502;9.752;2023-02-26T16:13:16;1.80;99.90
1546;DHT22;766;51.502;9.752;2023-02-26T16:15:51;1.80;99.90
1546;DHT22;766;51.502;9.752;2023-02-26T16:18:23;1.60;99.90
1546;DHT22;766;51.502;9.752;2023-02-26T16:20:55;1.60;99.90
1546;DHT22;766;51.502;9.752;2023-02-26T16:23:28;1.40;99.90
1546;DHT22;766;51.502;9.752;2023-02-26T16:26:01;1.30;99.90
1546;DHT22;766;51.502;9.752;2023-02-26T16:28:31;1.40;99.90
1546;DHT22;766;51.502;9.752;2023-02-26T16:31:02;1.30;99.90
1546;DHT22;766;51.502;9.752;2023-02-26T16:33:33;1.30;99.90
1546;DHT22;766;51.502;9.752;2023-02-26T16:36:08;1.30;99.90
1546;DHT22;766;51.502;9.752;2023-02-26T16:38:45;1.20;99.90
1546;DHT22;766;51.502;9.752;2023-02-26T16:41:19;1.20;99.90
1546;DHT22;766;51.502;9.752;2023-02-26T16:43:51;1.10;99.90
1546;DHT22;766;51.502;9.752;2023-02-26T16:46:22;1.10;99.90
1546;DHT22;766;51.502;9.752;2023-02-26T16:48:57;1.10;99.90
1546;DHT22;766;51.502;9.752;2023-02-26T16:51:30;1.00;99.90
1546;DHT22;766;51.502;9.752;2023-02-26T16:54:00;1.00;99.90
1546;DHT22;766;51.502;9.752;2023-02-26T16:56:31;1.00;99.90
1546;DHT22;766;51.502;9.752;2023-02-26T16:59:03;1.00;99.90
1546;DHT22;766;51.502;9.752;2023-02-26T17:01:35;1.00;99.90
1546;DHT22;766;51.502;9.752;2023-02-26T17:04:06;1.10;99.90
1546;DHT22;766;51.502;9.752;2023-02-26T17:06:37;1.10;99.90
1546;DHT22;766;51.502;9.752;2023-02-26T17:09:25;1.10;99.90
1546;DHT22;766;51.502;9.752;2023-02-26T17:12:04;1.10;99.90
1546;DHT22;766;51.502;9.752;2023-02-26T17:14:38;1.00;99.90
1546;DHT22;766;51.502;9.752;2023-02-26T17:17:08;1.00;99.90
1546;DHT22;766;51.502;9.752;2023-02-26T17:19:38;1.10;99.90